Jackson Springs, North Carolina
Current Conditions -  °F | °C
As of 9:35 PM on Thursday 20 Nov 2014 (Local Time) from KSOP Reporting Station
Clear Clear  
Wind Chill:   Ceiling: Unl
Heat Index:   Visibility: 10mi
Dew Point: -2°   Wind: 12mph
Humidity: 50%   Direction: 230°SW
Pressure: 30.12"   Gusts: NA
Location:  35.21°N, 79.63°W
Report Text: KSOP 210235Z AUTO 23010KT 10SM CLR 08/M02 A3012 RMK AO1
Loading
Personal Weather Stations






























Interactive Weather Map New forecast layout! Learn more

10-Day Weather Forecast

Advertisements
Track Severe Weather on mobile